sensor_id;sensor_type;location;lat;lon;timestamp;pressure;altitude;pressure_sealevel;temperature;humidity
32081;BME280;18593;51.426;7.030;2023-01-01T00:00:38;99992.38;;;15.33;48.74
32081;BME280;18593;51.426;7.030;2023-01-01T00:03:05;99988.84;;;15.32;48.16
32081;BME280;18593;51.426;7.030;2023-01-01T00:05:32;99993.72;;;15.35;48.11
32081;BME280;18593;51.426;7.030;2023-01-01T00:07:59;100000.16;;;15.34;48.71
32081;BME280;18593;51.426;7.030;2023-01-01T00:10:26;99994.53;;;15.36;48.62
32081;BME280;18593;51.426;7.030;2023-01-01T00:12:57;100007.72;;;15.37;48.26
32081;BME280;18593;51.426;7.030;2023-01-01T00:15:25;99995.09;;;15.38;48.26
32081;BME280;18593;51.426;7.030;2023-01-01T00:17:53;100003.16;;;15.38;47.85
32081;BME280;18593;51.426;7.030;2023-01-01T00:20:20;100008.53;;;15.38;48.56
32081;BME280;18593;51.426;7.030;2023-01-01T00:22:47;100000.72;;;15.36;48.22
32081;BME280;18593;51.426;7.030;2023-01-01T00:25:14;99994.28;;;15.37;48.63
32081;BME280;18593;51.426;7.030;2023-01-01T00:27:43;99995.59;;;15.35;48.21
32081;BME280;18593;51.426;7.030;2023-01-01T00:30:12;99995.88;;;15.33;48.25
32081;BME280;18593;51.426;7.030;2023-01-01T00:32:40;99992.59;;;15.31;48.41
32081;BME280;18593;51.426;7.030;2023-01-01T00:35:08;99988.84;;;15.32;48.34
32081;BME280;18593;51.426;7.030;2023-01-01T00:37:35;99992.88;;;15.30;48.61
32081;BME280;18593;51.426;7.030;2023-01-01T00:40:03;99997.16;;;15.31;49.18
32081;BME280;18593;51.426;7.030;2023-01-01T00:42:30;100001.72;;;15.30;48.67
32081;BME280;18593;51.426;7.030;2023-01-01T00:44:57;99995.00;;;15.28;48.47
32081;BME280;18593;51.426;7.030;2023-01-01T00:47:26;100000.13;;;15.29;48.52
32081;BME280;18593;51.426;7.030;2023-01-01T00:49:53;100010.88;;;15.29;48.66
32081;BME280;18593;51.426;7.030;2023-01-01T00:52:20;100000.13;;;15.29;48.26
32081;BME280;18593;51.426;7.030;2023-01-01T00:54:47;100011.41;;;15.31;47.85
32081;BME280;18593;51.426;7.030;2023-01-01T00:57:14;100009.78;;;15.30;47.80
32081;BME280;18593;51.426;7.030;2023-01-01T00:59:41;100002.28;;;15.32;47.67
32081;BME280;18593;51.426;7.030;2023-01-01T01:02:09;100002.28;;;15.32;47.75
32081;BME280;18593;51.426;7.030;2023-01-01T01:04:37;100001.72;;;15.30;47.47
32081;BME280;18593;51.426;7.030;2023-01-01T01:07:04;99991.25;;;15.29;48.04
32081;BME280;18593;51.426;7.030;2023-01-01T01:09:31;99996.03;;;15.27;47.96
32081;BME280;18593;51.426;7.030;2023-01-01T01:11:59;100002.22;;;15.27;48.14
32081;BME280;18593;51.426;7.030;2023-01-01T01:14:26;99992.81;;;15.25;47.57
32081;BME280;18593;51.426;7.030;2023-01-01T01:16:53;99997.94;;;15.26;47.55
32081;BME280;18593;51.426;7.030;2023-01-01T01:19:20;99997.88;;;15.21;47.49
32081;BME280;18593;51.426;7.030;2023-01-01T01:21:50;100009.44;;;15.22;47.57
32081;BME280;18593;51.426;7.030;2023-01-01T01:24:17;100016.94;;;15.19;47.02
32081;BME280;18593;51.426;7.030;2023-01-01T01:26:44;100015.06;;;15.20;46.95
32081;BME280;18593;51.426;7.030;2023-01-01T01:29:12;100009.16;;;15.18;47.37
32081;BME280;18593;51.426;7.030;2023-01-01T01:31:39;100005.88;;;15.16;47.13
32081;BME280;18593;51.426;7.030;2023-01-01T01:34:06;100013.13;;;15.15;46.47
32081;BME280;18593;51.426;7.030;2023-01-01T01:36:33;100007.50;;;15.17;46.86
32081;BME280;18593;51.426;7.030;2023-01-01T01:39:02;100018.25;;;15.17;46.72
32081;BME280;18593;51.426;7.030;2023-01-01T01:41:29;100012.88;;;15.17;46.49
32081;BME280;18593;51.426;7.030;2023-01-01T01:43:59;100027.13;;;15.17;46.60
32081;BME280;18593;51.426;7.030;2023-01-01T01:46:32;100027.94;;;15.18;46.27
32081;BME280;18593;51.426;7.030;2023-01-01T01:49:07;100023.63;;;15.17;46.31
32081;BME280;18593;51.426;7.030;2023-01-01T01:51:40;100010.19;;;15.17;46.26
32081;BME280;18593;51.426;7.030;2023-01-01T01:54:13;100026.81;;;15.14;45.95
32081;BME280;18593;51.426;7.030;2023-01-01T01:56:46;100035.38;;;15.11;45.96
32081;BME280;18593;51.426;7.030;2023-01-01T01:59:15;100031.56;;;15.07;46.37
32081;BME280;18593;51.426;7.030;2023-01-01T02:01:43;100037.50;;;15.09;46.39
32081;BME280;18593;51.426;7.030;2023-01-01T02:04:11;100043.69;;;15.09;46.17
32081;BME280;18593;51.426;7.030;2023-01-01T02:06:39;100043.63;;;15.04;46.11
32081;BME280;18593;51.426;7.030;2023-01-01T02:09:09;100055.69;;;15.02;46.09
32081;BME280;18593;51.426;7.030;2023-01-01T02:11:37;100053.00;;;15.02;45.86
32081;BME280;18593;51.426;7.030;2023-01-01T02:14:07;100042.78;;;14.99;46.42
32081;BME280;18593;51.426;7.030;2023-01-01T02:16:38;100049.75;;;15.00;45.70
32081;BME280;18593;51.426;7.030;2023-01-01T02:19:17;100042.03;;;15.03;45.69
32081;BME280;18593;51.426;7.030;2023-01-01T02:22:01;100043.88;;;15.03;45.57
32081;BME280;18593;51.426;7.030;2023-01-01T02:25:03;100041.44;;;15.01;45.67
32081;BME280;18593;51.426;7.030;2023-01-01T02:27:45;100043.81;;;14.98;45.69
32081;BME280;18593;51.426;7.030;2023-01-01T02:30:17;100044.38;;;15.00;46.13
32081;BME280;18593;51.426;7.030;2023-01-01T02:32:47;100036.28;;;14.94;45.34
32081;BME280;18593;51.426;7.030;2023-01-01T02:35:20;100041.66;;;14.94;45.97
32081;BME280;18593;51.426;7.030;2023-01-01T02:38:05;100047.25;;;14.93;45.08
32081;BME280;18593;51.426;7.030;2023-01-01T02:40:37;100054.00;;;14.96;45.24
32081;BME280;18593;51.426;7.030;2023-01-01T02:43:06;100052.69;;;14.98;45.36
32081;BME280;18593;51.426;7.030;2023-01-01T02:45:35;100038.97;;;14.94;44.83
32081;BME280;18593;51.426;7.030;2023-01-01T02:48:03;100040.56;;;14.96;44.87
32081;BME280;18593;51.426;7.030;2023-01-01T02:50:32;100057.75;;;14.94;45.44
32081;BME280;18593;51.426;7.030;2023-01-01T02:53:08;100051.56;;;14.94;45.64
32081;BME280;18593;51.426;7.030;2023-01-01T02:55:55;100043.75;;;14.92;44.85
32081;BME280;18593;51.426;7.030;2023-01-01T02:58:32;100050.78;;;14.93;45.17
32081;BME280;18593;51.426;7.030;2023-01-01T03:01:31;100059.84;;;14.92;45.13
32081;BME280;18593;51.426;7.030;2023-01-01T03:04:09;100048.03;;;14.88;45.17
32081;BME280;18593;51.426;7.030;2023-01-01T03:06:54;100050.72;;;14.88;44.96
32081;BME280;18593;51.426;7.030;2023-01-01T03:09:36;100061.19;;;14.90;44.95
32081;BME280;18593;51.426;7.030;2023-01-01T03:12:15;100061.44;;;14.88;44.93
32081;BME280;18593;51.426;7.030;2023-01-01T03:14:51;100064.13;;;14.88;45.07
32081;BME280;18593;51.426;7.030;2023-01-01T03:17:27;100070.53;;;14.87;45.38
32081;BME280;18593;51.426;7.030;2023-01-01T03:19:59;100062.75;;;14.86;44.81
32081;BME280;18593;51.426;7.030;2023-01-01T03:22:32;100072.41;;;14.87;44.84
32081;BME280;18593;51.426;7.030;2023-01-01T03:25:06;100061.94;;;14.85;45.14
32081;BME280;18593;51.426;7.030;2023-01-01T03:27:40;100061.94;;;14.85;45.08
32081;BME280;18593;51.426;7.030;2023-01-01T03:30:10;100067.56;;;14.84;45.59
32081;BME280;18593;51.426;7.030;2023-01-01T03:32:44;100066.72;;;14.83;45.23
32081;BME280;18593;51.426;7.030;2023-01-01T03:35:31;100071.28;;;14.83;45.39
32081;BME280;18593;51.426;7.030;2023-01-01T03:38:04;100072.94;;;14.84;45.30
32081;BME280;18593;51.426;7.030;2023-01-01T03:40:35;100075.34;;;14.85;45.82
32081;BME280;18593;51.426;7.030;2023-01-01T03:43:10;100073.97;;;14.83;45.77
32081;BME280;18593;51.426;7.030;2023-01-01T03:45:42;100079.41;;;14.88;46.14
32081;BME280;18593;51.426;7.030;2023-01-01T03:48:11;100079.41;;;14.88;45.92
32081;BME280;18593;51.426;7.030;2023-01-01T03:50:49;100080.72;;;14.85;46.01
32081;BME280;18593;51.426;7.030;2023-01-01T03:53:32;100072.69;;;14.85;45.51
32081;BME280;18593;51.426;7.030;2023-01-01T03:56:10;100076.16;;;14.86;45.62
32081;BME280;18593;51.426;7.030;2023-01-01T03:58:46;100091.72;;;14.84;45.90
32081;BME280;18593;51.426;7.030;2023-01-01T04:01:21;100096.25;;;14.83;45.18
32081;BME280;18593;51.426;7.030;2023-01-01T04:03:51;100077.47;;;14.83;46.14
32081;BME280;18593;51.426;7.030;2023-01-01T04:06:19;100087.09;;;14.79;45.93
32081;BME280;18593;51.426;7.030;2023-01-01T04:08:49;100100.28;;;14.81;45.88
32081;BME280;18593;51.426;7.030;2023-01-01T04:11:23;100094.34;;;14.79;46.21
32081;BME280;18593;51.426;7.030;2023-01-01T04:14:09;100111.50;;;14.78;47.33
32081;BME280;18593;51.426;7.030;2023-01-01T04:16:36;100128.66;;;14.77;47.14
32081;BME280;18593;51.426;7.030;2023-01-01T04:19:04;100119.53;;;14.78;47.90
32081;BME280;18593;51.426;7.030;2023-01-01T04:21:32;100112.28;;;14.78;47.29
32081;BME280;18593;51.426;7.030;2023-01-01T04:23:59;100099.13;;;14.77;47.20
32081;BME280;18593;51.426;7.030;2023-01-01T04:26:26;100104.25;;;14.78;46.86
32081;BME280;18593;51.426;7.030;2023-01-01T04:28:54;100101.41;;;14.85;47.19
32081;BME280;18593;51.426;7.030;2023-01-01T04:31:21;100111.34;;;14.84;46.73
32081;BME280;18593;51.426;7.030;2023-01-01T04:33:49;100098.47;;;14.86;47.25
32081;BME280;18593;51.426;7.030;2023-01-01T04:36:20;100103.28;;;14.84;46.67
32081;BME280;18593;51.426;7.030;2023-01-01T04:38:47;100110.81;;;14.87;46.75
32081;BME280;18593;51.426;7.030;2023-01-01T04:41:14;100108.66;;;14.84;47.15
32081;BME280;18593;51.426;7.030;2023-01-01T04:43:45;100103.56;;;14.88;46.95
32081;BME280;18593;51.426;7.030;2023-01-01T04:46:14;100114.56;;;14.86;47.27
32081;BME280;18593;51.426;7.030;2023-01-01T04:48:44;100116.44;;;14.86;47.30
32081;BME280;18593;51.426;7.030;2023-01-01T04:51:14;100113.00;;;14.90;47.34
32081;BME280;18593;51.426;7.030;2023-01-01T04:53:43;100121.31;;;14.89;47.43
32081;BME280;18593;51.426;7.030;2023-01-01T04:56:12;100130.75;;;14.91;47.74
32081;BME280;18593;51.426;7.030;2023-01-01T04:58:42;100129.13;;;14.90;47.28
32081;BME280;18593;51.426;7.030;2023-01-01T05:01:19;100133.75;;;14.95;47.71
32081;BME280;18593;51.426;7.030;2023-01-01T05:03:47;100137.72;;;14.92;47.13
32081;BME280;18593;51.426;7.030;2023-01-01T05:06:15;100142.56;;;14.90;47.51
32081;BME280;18593;51.426;7.030;2023-01-01T05:08:45;100128.88;;;14.92;47.46
32081;BME280;18593;51.426;7.030;2023-01-01T05:11:14;100128.06;;;14.91;47.64
32081;BME280;18593;51.426;7.030;2023-01-01T05:13:44;100123.75;;;14.90;47.58
32081;BME280;18593;51.426;7.030;2023-01-01T05:16:14;100125.63;;;14.90;47.82
32081;BME280;18593;51.426;7.030;2023-01-01T05:18:42;100129.69;;;14.92;47.90
32081;BME280;18593;51.426;7.030;2023-01-01T05:21:12;100125.97;;;14.93;47.87
32081;BME280;18593;51.426;7.030;2023-01-01T05:23:40;100130.25;;;14.94;48.19
32081;BME280;18593;51.426;7.030;2023-01-01T05:26:10;100131.31;;;14.93;48.16
32081;BME280;18593;51.426;7.030;2023-01-01T05:28:38;100134.81;;;14.94;48.32
32081;BME280;18593;51.426;7.030;2023-01-01T05:31:08;100142.63;;;14.96;47.78
32081;BME280;18593;51.426;7.030;2023-01-01T05:33:35;100151.16;;;14.92;48.04
32081;BME280;18593;51.426;7.030;2023-01-01T05:36:05;100142.06;;;14.93;47.83
32081;BME280;18593;51.426;7.030;2023-01-01T05:38:32;100160.88;;;14.93;47.97
32081;BME280;18593;51.426;7.030;2023-01-01T05:41:04;100155.72;;;14.92;47.99
32081;BME280;18593;51.426;7.030;2023-01-01T05:43:32;100156.78;;;14.91;47.98
32081;BME280;18593;51.426;7.030;2023-01-01T05:46:00;100180.97;;;14.91;48.17
32081;BME280;18593;51.426;7.030;2023-01-01T05:48:28;100183.91;;;14.89;48.32
32081;BME280;18593;51.426;7.030;2023-01-01T05:51:01;100183.63;;;14.91;48.42
32081;BME280;18593;51.426;7.030;2023-01-01T05:53:29;100172.09;;;14.90;48.73
32081;BME280;18593;51.426;7.030;2023-01-01T05:55:57;100177.94;;;14.87;49.18
32081;BME280;18593;51.426;7.030;2023-01-01T05:58:25;100180.34;;;14.84;49.76
32081;BME280;18593;51.426;7.030;2023-01-01T06:00:54;100209.53;;;14.80;50.13
32081;BME280;18593;51.426;7.030;2023-01-01T06:03:22;100210.59;;;14.79;50.08
32081;BME280;18593;51.426;7.030;2023-01-01T06:05:51;100208.94;;;14.78;50.51
32081;BME280;18593;51.426;7.030;2023-01-01T06:08:18;100203.34;;;14.80;51.03
32081;BME280;18593;51.426;7.030;2023-01-01T06:10:45;100190.75;;;14.80;51.37
32081;BME280;18593;51.426;7.030;2023-01-01T06:13:12;100207.00;;;14.74;51.83
32081;BME280;18593;51.426;7.030;2023-01-01T06:15:39;100219.31;;;14.70;51.58
32081;BME280;18593;51.426;7.030;2023-01-01T06:18:08;100228.38;;;14.68;52.06
32081;BME280;18593;51.426;7.030;2023-01-01T06:20:35;100232.72;;;14.70;52.03
32081;BME280;18593;51.426;7.030;2023-01-01T06:23:02;100228.16;;;14.70;51.33
32081;BME280;18593;51.426;7.030;2023-01-01T06:25:29;100224.41;;;14.71;50.90
32081;BME280;18593;51.426;7.030;2023-01-01T06:27:56;100228.25;;;14.75;51.07
32081;BME280;18593;51.426;7.030;2023-01-01T06:30:23;100234.19;;;14.77;51.13
32081;BME280;18593;51.426;7.030;2023-01-01T06:32:51;100238.72;;;14.77;50.75
32081;BME280;18593;51.426;7.030;2023-01-01T06:35:20;100259.97;;;14.78;50.98
32081;BME280;18593;51.426;7.030;2023-01-01T06:37:47;100253.22;;;14.76;50.71
32081;BME280;18593;51.426;7.030;2023-01-01T06:40:14;100264.44;;;14.73;51.17
32081;BME280;18593;51.426;7.030;2023-01-01T06:42:41;100251.00;;;14.73;50.58
32081;BME280;18593;51.426;7.030;2023-01-01T06:45:09;100255.09;;;14.75;50.21
32081;BME280;18593;51.426;7.030;2023-01-01T06:47:38;100267.47;;;14.76;50.31
32081;BME280;18593;51.426;7.030;2023-01-01T06:50:06;100282.75;;;14.76;50.30
32081;BME280;18593;51.426;7.030;2023-01-01T06:52:35;100280.88;;;14.76;50.36
32081;BME280;18593;51.426;7.030;2023-01-01T06:55:02;100284.63;;;14.75;50.52
32081;BME280;18593;51.426;7.030;2023-01-01T06:58:38;100286.25;;;14.76;50.71
32081;BME280;18593;51.426;7.030;2023-01-01T07:00:53;100276.31;;;14.77;51.04
32081;BME280;18593;51.426;7.030;2023-01-01T07:03:20;100285.19;;;14.77;51.11
32081;BME280;18593;51.426;7.030;2023-01-01T07:05:47;100285.19;;;14.77;51.63
32081;BME280;18593;51.426;7.030;2023-01-01T07:08:16;100282.75;;;14.76;52.33
32081;BME280;18593;51.426;7.030;2023-01-01T07:10:43;100283.56;;;14.76;52.50
32081;BME280;18593;51.426;7.030;2023-01-01T07:13:10;100289.75;;;14.77;52.46
32081;BME280;18593;51.426;7.030;2023-01-01T07:15:37;100289.19;;;14.75;52.25
32081;BME280;18593;51.426;7.030;2023-01-01T07:18:04;100292.09;;;14.73;52.36
32081;BME280;18593;51.426;7.030;2023-01-01T07:20:32;100297.72;;;14.72;51.71
32081;BME280;18593;51.426;7.030;2023-01-01T07:23:00;100301.22;;;14.72;51.79
32081;BME280;18593;51.426;7.030;2023-01-01T07:25:29;100310.06;;;14.73;51.50
32081;BME280;18593;51.426;7.030;2023-01-01T07:27:56;100306.03;;;14.70;52.32
32081;BME280;18593;51.426;7.030;2023-01-01T07:30:23;100323.19;;;14.69;52.44
32081;BME280;18593;51.426;7.030;2023-01-01T07:32:54;100319.44;;;14.70;52.68
32081;BME280;18593;51.426;7.030;2023-01-01T07:35:21;100322.44;;;14.74;52.92
32081;BME280;18593;51.426;7.030;2023-01-01T07:37:48;100335.84;;;14.74;52.84
32081;BME280;18593;51.426;7.030;2023-01-01T07:40:15;100350.94;;;14.75;53.11
32081;BME280;18593;51.426;7.030;2023-01-01T07:42:44;100353.63;;;14.75;54.24
32081;BME280;18593;51.426;7.030;2023-01-01T07:45:11;100342.53;;;14.71;54.52
32081;BME280;18593;51.426;7.030;2023-01-01T07:47:39;100354.56;;;14.68;55.17
32081;BME280;18593;51.426;7.030;2023-01-01T07:50:13;100337.16;;;14.71;55.77
32081;BME280;18593;51.426;7.030;2023-01-01T07:52:40;100354.25;;;14.65;55.82
32081;BME280;18593;51.426;7.030;2023-01-01T07:55:11;100356.34;;;14.63;56.24
32081;BME280;18593;51.426;7.030;2023-01-01T07:57:39;100359.03;;;14.63;57.24
32081;BME280;18593;51.426;7.030;2023-01-01T08:00:09;100368.38;;;14.60;57.38
32081;BME280;18593;51.426;7.030;2023-01-01T08:02:39;100377.25;;;14.61;57.16
32081;BME280;18593;51.426;7.030;2023-01-01T08:05:07;100379.59;;;14.57;57.02
32081;BME280;18593;51.426;7.030;2023-01-01T08:07:34;100373.78;;;14.49;57.26
32081;BME280;18593;51.426;7.030;2023-01-01T08:10:02;100365.72;;;14.49;57.56
32081;BME280;18593;51.426;7.030;2023-01-01T08:12:30;100378.13;;;14.50;57.28
32081;BME280;18593;51.426;7.030;2023-01-01T08:14:57;100394.31;;;14.55;57.58
32081;BME280;18593;51.426;7.030;2023-01-01T08:17:25;100391.84;;;14.53;57.88
32081;BME280;18593;51.426;7.030;2023-01-01T08:19:52;100402.84;;;14.52;57.84
32081;BME280;18593;51.426;7.030;2023-01-01T08:22:19;100399.47;;;14.45;57.73
32081;BME280;18593;51.426;7.030;2023-01-01T08:24:46;100392.34;;;14.38;57.55
32081;BME280;18593;51.426;7.030;2023-01-01T08:27:15;100404.22;;;14.42;57.42
32081;BME280;18593;51.426;7.030;2023-01-01T08:29:42;100399.94;;;14.41;57.04
32081;BME280;18593;51.426;7.030;2023-01-01T08:32:10;100404.22;;;14.42;56.82
32081;BME280;18593;51.426;7.030;2023-01-01T08:34:39;100397.81;;;14.43;56.66
32081;BME280;18593;51.426;7.030;2023-01-01T08:37:10;100399.22;;;14.46;56.42
32081;BME280;18593;51.426;7.030;2023-01-01T08:39:38;100403.53;;;14.47;56.60
32081;BME280;18593;51.426;7.030;2023-01-01T08:42:06;100414.03;;;14.49;56.63
32081;BME280;18593;51.426;7.030;2023-01-01T08:44:33;100438.19;;;14.49;56.39
32081;BME280;18593;51.426;7.030;2023-01-01T08:47:00;100437.84;;;14.45;56.59
32081;BME280;18593;51.426;7.030;2023-01-01T08:49:28;100440.28;;;14.47;56.47
32081;BME280;18593;51.426;7.030;2023-01-01T08:51:57;100450.44;;;14.45;56.62
32081;BME280;18593;51.426;7.030;2023-01-01T08:54:24;100446.91;;;14.44;56.72
32081;BME280;18593;51.426;7.030;2023-01-01T08:56:51;100448.78;;;14.43;56.84
32081;BME280;18593;51.426;7.030;2023-01-01T08:59:18;100445.53;;;14.41;56.29
32081;BME280;18593;51.426;7.030;2023-01-01T09:01:45;100450.19;;;14.46;56.93
32081;BME280;18593;51.426;7.030;2023-01-01T09:04:13;100452.06;;;14.46;56.48
32081;BME280;18593;51.426;7.030;2023-01-01T09:06:40;100460.34;;;14.44;56.64
32081;BME280;18593;51.426;7.030;2023-01-01T09:09:09;100471.06;;;14.44;56.60
32081;BME280;18593;51.426;7.030;2023-01-01T09:11:36;100470.84;;;14.46;56.97
32081;BME280;18593;51.426;7.030;2023-01-01T09:14:04;100477.63;;;14.48;56.66
32081;BME280;18593;51.426;7.030;2023-01-01T09:16:31;100473.28;;;14.47;56.66
32081;BME280;18593;51.426;7.030;2023-01-01T09:18:59;100472.06;;;14.50;56.66
32081;BME280;18593;51.426;7.030;2023-01-01T09:21:26;100492.06;;;14.47;56.38
32081;BME280;18593;51.426;7.030;2023-01-01T09:23:53;100502.00;;;14.47;56.66
32081;BME280;18593;51.426;7.030;2023-01-01T09:26:21;100506.09;;;14.49;56.60
32081;BME280;18593;51.426;7.030;2023-01-01T09:28:49;100491.88;;;14.49;56.51
32081;BME280;18593;51.426;7.030;2023-01-01T09:31:16;100499.69;;;14.50;56.94
32081;BME280;18593;51.426;7.030;2023-01-01T09:33:43;100500.88;;;14.54;56.87
32081;BME280;18593;51.426;7.030;2023-01-01T09:36:25;100503.31;;;14.56;56.44
32081;BME280;18593;51.426;7.030;2023-01-01T09:38:54;100495.25;;;14.56;56.59
32081;BME280;18593;51.426;7.030;2023-01-01T09:41:34;100500.72;;;14.61;56.24
32081;BME280;18593;51.426;7.030;2023-01-01T09:44:17;100510.41;;;14.62;56.77
32081;BME280;18593;51.426;7.030;2023-01-01T09:46:47;100515.19;;;14.60;56.40
32081;BME280;18593;51.426;7.030;2023-01-01T09:49:17;100525.34;;;14.58;56.29
32081;BME280;18593;51.426;7.030;2023-01-01T09:51:53;100530.94;;;14.56;56.66
32081;BME280;18593;51.426;7.030;2023-01-01T09:54:28;100512.41;;;14.55;56.28
32081;BME280;18593;51.426;7.030;2023-01-01T09:57:02;100525.81;;;14.55;56.16
32081;BME280;18593;51.426;7.030;2023-01-01T09:59:31;100512.72;;;14.58;56.60
32081;BME280;18593;51.426;7.030;2023-01-01T10:02:09;100525.69;;;14.61;56.47
32081;BME280;18593;51.426;7.030;2023-01-01T10:04:47;100526.50;;;14.62;56.49
32081;BME280;18593;51.426;7.030;2023-01-01T10:07:25;100540.97;;;14.61;56.72
32081;BME280;18593;51.426;7.030;2023-01-01T10:10:02;100552.53;;;14.61;56.90
32081;BME280;18593;51.426;7.030;2023-01-01T10:12:39;100552.53;;;14.61;56.82
32081;BME280;18593;51.426;7.030;2023-01-01T10:15:13;100554.66;;;14.59;56.79
32081;BME280;18593;51.426;7.030;2023-01-01T10:17:45;100550.91;;;14.60;56.46
32081;BME280;18593;51.426;7.030;2023-01-01T10:20:19;100540.38;;;14.59;56.51
32081;BME280;18593;51.426;7.030;2023-01-01T10:22:52;100530.13;;;14.56;56.37
32081;BME280;18593;51.426;7.030;2023-01-01T10:25:24;100532.81;;;14.56;56.42
32081;BME280;18593;51.426;7.030;2023-01-01T10:27:59;100533.28;;;14.53;56.72
32081;BME280;18593;51.426;7.030;2023-01-01T10:30:27;100516.72;;;14.56;56.86
32081;BME280;18593;51.426;7.030;2023-01-01T10:32:56;100517.06;;;14.59;56.84
32081;BME280;18593;51.426;7.030;2023-01-01T10:35:26;100521.38;;;14.60;56.87
32081;BME280;18593;51.426;7.030;2023-01-01T10:37:58;100524.06;;;14.60;57.07
32081;BME280;18593;51.426;7.030;2023-01-01T10:40:27;100531.41;;;14.65;56.80
32081;BME280;18593;51.426;7.030;2023-01-01T10:42:59;100525.78;;;14.66;56.60
32081;BME280;18593;51.426;7.030;2023-01-01T10:45:31;100513.19;;;14.67;56.93
32081;BME280;18593;51.426;7.030;2023-01-01T10:48:16;100507.81;;;14.67;56.88
32081;BME280;18593;51.426;7.030;2023-01-01T10:50:47;100503.50;;;14.66;56.67
32081;BME280;18593;51.426;7.030;2023-01-01T10:53:29;100491.16;;;14.65;56.61
32081;BME280;18593;51.426;7.030;2023-01-01T10:56:04;100507.47;;;14.63;57.27
32081;BME280;18593;51.426;7.030;2023-01-01T10:58:42;100504.78;;;14.63;56.62
32081;BME280;18593;51.426;7.030;2023-01-01T11:01:12;100493.00;;;14.64;56.71
32081;BME280;18593;51.426;7.030;2023-01-01T11:03:55;100495.47;;;14.66;56.90
32081;BME280;18593;51.426;7.030;2023-01-01T11:06:25;100494.63;;;14.65;56.69
32081;BME280;18593;51.426;7.030;2023-01-01T11:08:55;100510.16;;;14.63;56.90
32081;BME280;18593;51.426;7.030;2023-01-01T11:11:29;100515.53;;;14.63;56.67
32081;BME280;18593;51.426;7.030;2023-01-01T11:14:01;100511.47;;;14.61;57.10
32081;BME280;18593;51.426;7.030;2023-01-01T11:16:31;100518.22;;;14.63;56.84
32081;BME280;18593;51.426;7.030;2023-01-01T11:19:05;100522.75;;;14.63;57.07
32081;BME280;18593;51.426;7.030;2023-01-01T11:21:33;100535.72;;;14.66;56.83
32081;BME280;18593;51.426;7.030;2023-01-01T11:24:18;100534.91;;;14.65;56.90
32081;BME280;18593;51.426;7.030;2023-01-01T11:26:46;100528.72;;;14.65;56.60
32081;BME280;18593;51.426;7.030;2023-01-01T11:29:23;100543.41;;;14.62;56.86
32081;BME280;18593;51.426;7.030;2023-01-01T11:31:51;100537.59;;;14.65;57.24
32081;BME280;18593;51.426;7.030;2023-01-01T11:34:28;100545.41;;;14.67;57.08
32081;BME280;18593;51.426;7.030;2023-01-01T11:37:22;100538.97;;;14.68;56.88
32081;BME280;18593;51.426;7.030;2023-01-01T11:39:54;100546.00;;;14.69;56.87
32081;BME280;18593;51.426;7.030;2023-01-01T11:42:25;100556.72;;;14.69;56.96
32081;BME280;18593;51.426;7.030;2023-01-01T11:44:56;100544.94;;;14.70;57.11
32081;BME280;18593;51.426;7.030;2023-01-01T11:47:29;100549.81;;;14.73;56.97
32081;BME280;18593;51.426;7.030;2023-01-01T11:50:02;100551.47;;;14.74;56.87
32081;BME280;18593;51.426;7.030;2023-01-01T11:52:37;100547.94;;;14.74;56.91
32081;BME280;18593;51.426;7.030;2023-01-01T11:55:18;100563.84;;;14.75;57.35
32081;BME280;18593;51.426;7.030;2023-01-01T11:57:56;100556.84;;;14.74;56.83
32081;BME280;18593;51.426;7.030;2023-01-01T12:00:30;100562.09;;;14.69;56.39
32081;BME280;18593;51.426;7.030;2023-01-01T12:03:02;100556.72;;;14.69;56.44
32081;BME280;18593;51.426;7.030;2023-01-01T12:05:44;100551.38;;;14.69;56.70
32081;BME280;18593;51.426;7.030;2023-01-01T12:08:22;100549.50;;;14.70;56.74
32081;BME280;18593;51.426;7.030;2023-01-01T12:10:59;100540.03;;;14.67;56.56
32081;BME280;18593;51.426;7.030;2023-01-01T12:13:34;100545.41;;;14.67;56.35
32081;BME280;18593;51.426;7.030;2023-01-01T12:16:12;100538.75;;;14.70;56.62
32081;BME280;18593;51.426;7.030;2023-01-01T12:18:44;100531.28;;;14.72;57.47
32081;BME280;18593;51.426;7.030;2023-01-01T12:21:19;100528.59;;;14.72;56.85
32081;BME280;18593;51.426;7.030;2023-01-01T12:23:50;100520.88;;;14.75;56.85
32081;BME280;18593;51.426;7.030;2023-01-01T12:26:22;100514.09;;;14.73;56.21
32081;BME280;18593;51.426;7.030;2023-01-01T12:29:26;100519.72;;;14.71;56.03
32081;BME280;18593;51.426;7.030;2023-01-01T12:32:05;100526.72;;;14.72;56.27
32081;BME280;18593;51.426;7.030;2023-01-01T12:34:38;100520.19;;;14.68;55.86
32081;BME280;18593;51.426;7.030;2023-01-01T12:37:34;100523.34;;;14.65;55.71
32081;BME280;18593;51.426;7.030;2023-01-01T12:40:33;100515.06;;;14.66;55.84
32081;BME280;18593;51.426;7.030;2023-01-01T12:43:07;100514.59;;;14.70;56.06
32081;BME280;18593;51.426;7.030;2023-01-01T12:46:16;100506.53;;;14.70;55.67
32081;BME280;18593;51.426;7.030;2023-01-01T12:49:12;100529.28;;;14.67;55.88
32081;BME280;18593;51.426;7.030;2023-01-01T12:51:50;100514.81;;;14.68;55.79
32081;BME280;18593;51.426;7.030;2023-01-01T12:55:06;100528.34;;;14.73;56.17
32081;BME280;18593;51.426;7.030;2023-01-01T12:57:49;100526.38;;;14.68;56.06
32081;BME280;18593;51.426;7.030;2023-01-01T13:00:19;100529.91;;;14.69;55.81
32081;BME280;18593;51.426;7.030;2023-01-01T13:02:51;100525.09;;;14.71;55.50
32081;BME280;18593;51.426;7.030;2023-01-01T13:05:35;100523.94;;;14.67;55.74
32081;BME280;18593;51.426;7.030;2023-01-01T13:08:04;100534.31;;;14.63;55.43
32081;BME280;18593;51.426;7.030;2023-01-01T13:10:34;100528.72;;;14.65;55.78
32081;BME280;18593;51.426;7.030;2023-01-01T13:13:04;100519.00;;;14.64;55.51